Terminal Aerodrome Forecast
Issued by NWS

Home | Current Version | Previous Version | Text Only | Print | Product List | Glossary On
Versions: 1 2 3 4 5 6 7 8 9 10 11 12 13 14 15 16 17 18
000
FTAK31 PAJN 210500
TAFASI
TAF
PASI 210520Z 2106/2206 30010KT P6SM FEW015 BKN045
     FM211000 VRB05KT 5SM BR FEW005 BKN060
     FM211800 30012KT P6SM BKN080=

USA.gov is the U.S. government's official web portal to all federal, state and local government web resources and services.